Time;durP1;ratioP1;P1;durP2;ratioP2;P2;SDS_P1;SDS_P2;PMS_P1;PMS_P2;Temp;Humidity;BMP_temperature;BMP_pressure;BME280_temperature;BME280_humidity;BME280_pressure;Samples;Min_cycle;Max_cycle;Signal;HPM_P1;HPM_P2
2023/04/08 00:01:07;;;;;;;19.17;12.98;;;;;;;;;;5073407;28;20202;-69
2023/04/08 00:03:35;;;;;;;13.90;11.82;;;;;;;;;;5072523;28;20226;-69
2023/04/08 00:06:03;;;;;;;12.77;11.40;;;;;;;;;;5072720;28;20196;-69
2023/04/08 00:08:30;;;;;;;14.70;11.82;;;;;;;;;;5073200;28;20571;-70
2023/04/08 00:10:57;;;;;;;18.38;12.80;;;;;;;;;;5072595;28;20233;-69
2023/04/08 00:13:25;;;;;;;15.93;11.90;;;;;;;;;;5072636;28;20194;-69
2023/04/08 00:15:52;;;;;;;11.43;9.90;;;;;;;;;;5072879;28;20197;-69
2023/04/08 00:18:19;;;;;;;11.50;10.23;;;;;;;;;;5072931;28;20200;-69
2023/04/08 00:20:48;;;;;;;12.35;10.10;;;;;;;;;;5072503;28;20667;-69
2023/04/08 00:23:15;;;;;;;13.27;11.77;;;;;;;;;;5072848;28;20204;-69
2023/04/08 00:25:42;;;;;;;13.10;11.45;;;;;;;;;;5072892;28;20202;-69
2023/04/08 00:28:09;;;;;;;16.52;11.77;;;;;;;;;;5072577;28;20202;-69
2023/04/08 00:30:37;;;;;;;13.20;11.32;;;;;;;;;;5072463;28;20655;-69
2023/04/08 00:33:04;;;;;;;13.48;11.35;;;;;;;;;;5073053;28;20197;-69
2023/04/08 00:35:31;;;;;;;17.25;13.23;;;;;;;;;;5072388;28;20194;-69
2023/04/08 00:38:00;;;;;;;11.15;10.05;;;;;;;;;;5072505;28;20201;-70
2023/04/08 00:40:27;;;;;;;12.80;10.38;;;;;;;;;;5073182;28;20205;-69
2023/04/08 00:42:54;;;;;;;12.98;10.95;;;;;;;;;;5076410;28;20667;-69
2023/04/08 00:45:22;;;;;;;11.65;10.38;;;;;;;;;;5076108;28;20226;-69
2023/04/08 00:47:51;;;;;;;12.02;10.60;;;;;;;;;;5076793;28;20204;-69
2023/04/08 00:50:18;;;;;;;11.20;9.70;;;;;;;;;;5076284;28;20194;-69
2023/04/08 00:52:45;;;;;;;13.32;10.45;;;;;;;;;;5076378;28;20555;-69
2023/04/08 00:55:14;;;;;;;14.93;11.75;;;;;;;;;;5076121;28;20198;-69
2023/04/08 00:57:41;;;;;;;14.60;11.40;;;;;;;;;;5075713;28;20190;-69
2023/04/08 01:00:09;;;;;;;14.95;12.35;;;;;;;;;;5075922;28;20198;-69
2023/04/08 01:02:37;;;;;;;13.70;12.30;;;;;;;;;;5075344;28;20230;-69
2023/04/08 01:05:07;;;;;;;14.82;12.85;;;;;;;;;;5076365;28;20225;-69
2023/04/08 01:07:35;;;;;;;18.50;13.02;;;;;;;;;;5075512;28;20190;-69
2023/04/08 01:10:03;;;;;;;15.25;12.43;;;;;;;;;;5075596;28;20190;-69
2023/04/08 01:12:33;;;;;;;16.30;11.63;;;;;;;;;;5075415;28;20200;-69
2023/04/08 01:15:01;;;;;;;14.25;10.45;;;;;;;;;;5075649;28;20198;-69
2023/04/08 01:17:29;;;;;;;13.95;11.82;;;;;;;;;;5076317;28;20192;-69
2023/04/08 01:19:58;;;;;;;12.77;10.52;;;;;;;;;;5075254;28;20206;-69
2023/04/08 01:22:28;;;;;;;11.90;9.63;;;;;;;;;;5075282;28;20196;-69
2023/04/08 01:24:59;;;;;;;14.85;11.45;;;;;;;;;;5075616;28;20732;-69
2023/04/08 01:27:29;;;;;;;12.55;10.98;;;;;;;;;;5075271;28;20200;-69
2023/04/08 01:29:57;;;;;;;11.27;9.98;;;;;;;;;;5075358;28;20207;-69
2023/04/08 01:32:24;;;;;;;11.77;10.57;;;;;;;;;;5075133;28;20206;-69
2023/04/08 01:34:52;;;;;;;14.70;11.02;;;;;;;;;;5074862;28;20201;-69
2023/04/08 01:37:20;;;;;;;16.08;11.75;;;;;;;;;;5074961;28;20677;-69
2023/04/08 01:39:47;;;;;;;11.65;10.45;;;;;;;;;;5075445;28;20204;-69
2023/04/08 01:42:15;;;;;;;12.80;11.40;;;;;;;;;;5075607;28;20292;-69
2023/04/08 01:44:44;;;;;;;13.80;11.43;;;;;;;;;;5074988;28;20254;-70
2023/04/08 01:47:14;;;;;;;13.98;11.27;;;;;;;;;;5074761;28;20234;-69
2023/04/08 01:49:41;;;;;;;14.63;10.80;;;;;;;;;;5075229;28;20201;-70
2023/04/08 01:52:10;;;;;;;13.23;11.43;;;;;;;;;;5074529;28;20537;-69
2023/04/08 01:54:37;;;;;;;12.23;10.85;;;;;;;;;;5074944;28;20201;-68
2023/04/08 01:57:07;;;;;;;13.07;10.57;;;;;;;;;;5074788;28;20197;-69
2023/04/08 01:59:35;;;;;;;11.82;9.70;;;;;;;;;;5074576;28;20186;-69
2023/04/08 02:02:06;;;;;;;12.45;11.15;;;;;;;;;;5074370;28;20201;-69
2023/04/08 02:04:34;;;;;;;11.27;10.05;;;;;;;;;;5074318;28;20223;-69
2023/04/08 02:07:01;;;;;;;11.60;9.45;;;;;;;;;;5074681;28;20207;-69
2023/04/08 02:09:29;;;;;;;10.90;9.32;;;;;;;;;;5075124;28;20196;-69
2023/04/08 02:11:57;;;;;;;10.32;9.10;;;;;;;;;;5074562;28;20229;-69
2023/04/08 02:14:25;;;;;;;13.35;8.80;;;;;;;;;;5074498;28;20258;-69
2023/04/08 02:16:54;;;;;;;9.82;8.65;;;;;;;;;;5074055;28;20659;-69
2023/04/08 02:19:26;;;;;;;12.43;8.80;;;;;;;;;;5074091;28;20200;-69
2023/04/08 02:21:56;;;;;;;8.48;7.65;;;;;;;;;;5074599;28;20242;-69
2023/04/08 02:24:23;;;;;;;10.90;9.70;;;;;;;;;;5074255;28;20229;-69
2023/04/08 02:26:50;;;;;;;9.90;8.68;;;;;;;;;;5074479;28;20200;-69
2023/04/08 02:29:19;;;;;;;11.63;8.32;;;;;;;;;;5074274;28;20234;-69
2023/04/08 02:31:47;;;;;;;10.02;8.95;;;;;;;;;;5073785;28;20682;-69
2023/04/08 02:34:14;;;;;;;9.32;8.30;;;;;;;;;;5074358;28;20199;-69
2023/04/08 02:36:45;;;;;;;9.02;8.02;;;;;;;;;;5073969;28;20199;-69
2023/04/08 02:39:13;;;;;;;9.43;8.48;;;;;;;;;;5074948;28;20184;-69
2023/04/08 02:41:40;;;;;;;9.48;8.30;;;;;;;;;;5074010;28;20203;-69
2023/04/08 02:44:08;;;;;;;11.05;8.05;;;;;;;;;;5073897;28;20201;-69
2023/04/08 02:46:35;;;;;;;11.27;8.40;;;;;;;;;;5073866;28;20599;-69
2023/04/08 02:49:02;;;;;;;10.10;8.63;;;;;;;;;;5073593;28;20287;-69
2023/04/08 02:51:30;;;;;;;8.20;7.32;;;;;;;;;;5073840;28;20204;-69
2023/04/08 02:53:59;;;;;;;9.55;8.07;;;;;;;;;;5074171;28;20199;-69
2023/04/08 02:56:26;;;;;;;9.50;7.75;;;;;;;;;;5073539;28;20197;-69
2023/04/08 02:58:54;;;;;;;11.75;8.57;;;;;;;;;;5073411;28;20206;-69
2023/04/08 03:01:21;;;;;;;12.43;8.60;;;;;;;;;;5074080;28;20196;-69
2023/04/08 03:03:48;;;;;;;8.80;7.25;;;;;;;;;;5072880;28;20317;-69
2023/04/08 03:06:15;;;;;;;8.48;7.57;;;;;;;;;;5073502;28;20234;-69
2023/04/08 03:08:42;;;;;;;11.15;7.85;;;;;;;;;;5073748;28;20200;-70
2023/04/08 03:11:11;;;;;;;8.65;7.72;;;;;;;;;;5073136;28;20677;-69
2023/04/08 03:13:38;;;;;;;9.57;8.40;;;;;;;;;;5073695;28;20225;-69
2023/04/08 03:16:06;;;;;;;9.25;8.27;;;;;;;;;;5073123;28;20207;-69
2023/04/08 03:18:33;;;;;;;8.63;7.82;;;;;;;;;;5073834;28;20194;-69
2023/04/08 03:21:02;;;;;;;9.98;7.43;;;;;;;;;;5073815;28;20193;-69
2023/04/08 03:23:29;;;;;;;9.88;7.55;;;;;;;;;;5073399;28;20193;-70
2023/04/08 03:25:56;;;;;;;10.45;8.23;;;;;;;;;;5073381;28;20228;-69
2023/04/08 03:28:24;;;;;;;10.93;7.35;;;;;;;;;;5073360;28;20200;-69
2023/04/08 03:30:52;;;;;;;10.27;9.18;;;;;;;;;;5073847;28;20204;-70
2023/04/08 03:33:19;;;;;;;8.73;7.82;;;;;;;;;;5073411;28;20205;-70
2023/04/08 03:35:46;;;;;;;9.95;8.52;;;;;;;;;;5073236;28;20198;-69
2023/04/08 03:38:14;;;;;;;8.52;7.50;;;;;;;;;;5072922;28;20192;-69
2023/04/08 03:40:41;;;;;;;12.10;8.95;;;;;;;;;;5073049;28;20658;-69
2023/04/08 03:43:08;;;;;;;11.40;7.93;;;;;;;;;;5080019;28;20300;-69
2023/04/08 03:45:36;;;;;;;9.80;8.10;;;;;;;;;;5092392;28;20230;-69
2023/04/08 03:48:04;;;;;;;9.38;8.38;;;;;;;;;;5093057;28;20291;-69
2023/04/08 03:50:31;;;;;;;8.82;7.97;;;;;;;;;;5093076;28;20200;-69
2023/04/08 03:52:58;;;;;;;8.90;7.80;;;;;;;;;;5093318;28;20215;-69
2023/04/08 03:55:25;;;;;;;8.73;6.90;;;;;;;;;;5093428;28;20208;-69
2023/04/08 03:57:52;;;;;;;12.40;8.50;;;;;;;;;;5093246;28;20203;-69
2023/04/08 04:00:20;;;;;;;10.95;8.02;;;;;;;;;;5093380;28;20207;-69
2023/04/08 04:02:48;;;;;;;10.10;9.07;;;;;;;;;;5092900;28;20768;-69
2023/04/08 04:05:15;;;;;;;8.57;7.57;;;;;;;;;;5092885;28;20221;-69
2023/04/08 04:07:43;;;;;;;10.45;8.50;;;;;;;;;;5093070;28;20303;-69
2023/04/08 04:10:10;;;;;;;9.43;8.25;;;;;;;;;;5092904;28;20203;-68
2023/04/08 04:12:38;;;;;;;11.32;8.90;;;;;;;;;;5093284;28;20201;-70
2023/04/08 04:15:05;;;;;;;9.40;8.35;;;;;;;;;;5093271;28;20198;-70
2023/04/08 04:17:32;;;;;;;8.63;7.82;;;;;;;;;;5075743;28;20198;-69
2023/04/08 04:20:01;;;;;;;10.38;8.10;;;;;;;;;;5075891;28;20197;-69
2023/04/08 04:22:28;;;;;;;11.20;7.95;;;;;;;;;;5076018;28;20680;-69
2023/04/08 04:24:55;;;;;;;10.50;8.73;;;;;;;;;;5076126;28;20220;-69
2023/04/08 04:27:23;;;;;;;8.82;7.93;;;;;;;;;;5076937;28;20194;-69
2023/04/08 04:29:50;;;;;;;12.23;7.57;;;;;;;;;;5077035;28;20198;-69
2023/04/08 04:32:18;;;;;;;8.43;7.50;;;;;;;;;;5076725;28;20200;-69
2023/04/08 04:34:45;;;;;;;7.50;6.72;;;;;;;;;;5076125;28;20263;-69
2023/04/08 04:37:14;;;;;;;9.95;7.80;;;;;;;;;;5076289;28;20205;-69
2023/04/08 04:39:41;;;;;;;12.63;7.97;;;;;;;;;;5076066;28;20295;-69
2023/04/08 04:42:08;;;;;;;8.07;7.28;;;;;;;;;;5076413;28;20199;-71
2023/04/08 04:44:35;;;;;;;10.38;8.15;;;;;;;;;;5095590;28;20193;-69
2023/04/08 04:47:03;;;;;;;9.32;8.20;;;;;;;;;;5096416;28;20192;-69
2023/04/08 04:49:30;;;;;;;11.02;8.82;;;;;;;;;;5096325;28;20219;-69
2023/04/08 04:51:57;;;;;;;9.50;7.43;;;;;;;;;;5096408;28;20569;-69
2023/04/08 04:54:26;;;;;;;7.45;6.70;;;;;;;;;;5096303;28;20199;-70
2023/04/08 04:56:53;;;;;;;8.80;7.90;;;;;;;;;;5096271;28;20204;-69
2023/04/08 04:59:20;;;;;;;9.30;8.20;;;;;;;;;;5095893;28;20193;-68
2023/04/08 05:01:47;;;;;;;12.43;7.47;;;;;;;;;;5095872;28;20204;-69
2023/04/08 05:04:15;;;;;;;9.73;7.70;;;;;;;;;;5096062;28;20243;-69
2023/04/08 05:06:42;;;;;;;10.70;8.45;;;;;;;;;;5095995;28;20236;-69
2023/04/08 05:09:09;;;;;;;9.27;8.10;;;;;;;;;;5095976;28;20189;-69
2023/04/08 05:11:37;;;;;;;8.73;7.35;;;;;;;;;;5096128;28;20207;-69
2023/04/08 05:14:05;;;;;;;9.70;8.35;;;;;;;;;;5096028;28;20204;-69
2023/04/08 05:16:32;;;;;;;9.07;7.95;;;;;;;;;;5095615;28;20200;-69
2023/04/08 05:19:00;;;;;;;9.82;7.85;;;;;;;;;;5095535;28;20207;-69
2023/04/08 05:21:27;;;;;;;12.70;8.68;;;;;;;;;;5095896;28;20200;-69
2023/04/08 05:23:54;;;;;;;8.88;7.15;;;;;;;;;;5095596;28;20217;-69
2023/04/08 05:26:21;;;;;;;9.18;7.88;;;;;;;;;;5094892;28;20251;-69
2023/04/08 05:28:51;;;;;;;10.90;8.35;;;;;;;;;;5095600;28;20196;-69
2023/04/08 05:31:18;;;;;;;8.13;7.32;;;;;;;;;;5095355;28;20204;-69
2023/04/08 05:33:45;;;;;;;9.38;7.38;;;;;;;;;;5095520;28;20197;-69
2023/04/08 05:36:13;;;;;;;9.95;7.20;;;;;;;;;;5095190;28;20204;-69
2023/04/08 05:38:42;;;;;;;9.40;7.85;;;;;;;;;;5094982;28;20647;-70
2023/04/08 05:41:09;;;;;;;9.45;8.48;;;;;;;;;;5095007;28;20203;-69
2023/04/08 05:43:36;;;;;;;9.35;7.90;;;;;;;;;;5095623;28;20201;-69
2023/04/08 05:46:08;;;;;;;8.40;6.95;;;;;;;;;;5095008;28;20217;-69
2023/04/08 05:48:35;;;;;;;10.57;8.40;;;;;;;;;;5094946;28;20565;-69
2023/04/08 05:51:03;;;;;;;8.40;7.60;;;;;;;;;;5094853;28;20200;-69
2023/04/08 05:53:30;;;;;;;11.45;7.75;;;;;;;;;;5094808;28;20197;-69
2023/04/08 05:55:57;;;;;;;8.10;7.28;;;;;;;;;;5095149;28;20574;-69
2023/04/08 05:58:24;;;;;;;8.73;7.57;;;;;;;;;;5095062;28;20193;-70
2023/04/08 06:00:51;;;;;;;8.77;7.88;;;;;;;;;;5094975;28;20232;-69
2023/04/08 06:03:20;;;;;;;8.82;7.60;;;;;;;;;;5094596;28;20225;-69
2023/04/08 06:05:47;;;;;;;11.02;9.25;;;;;;;;;;5094762;28;20228;-69
2023/04/08 06:08:15;;;;;;;9.40;7.40;;;;;;;;;;5095000;28;20198;-69
2023/04/08 06:10:48;;;;;;;9.60;8.63;;;;;;;;;;5094442;28;20227;-69
2023/04/08 06:13:16;;;;;;;8.90;7.57;;;;;;;;;;5094846;28;20219;-69
2023/04/08 06:15:43;;;;;;;16.30;7.75;;;;;;;;;;5094747;28;20210;-69
2023/04/08 06:18:10;;;;;;;10.10;8.00;;;;;;;;;;5095200;28;20196;-69
2023/04/08 06:20:39;;;;;;;8.48;7.68;;;;;;;;;;5094604;28;20233;-73
2023/04/08 06:23:06;;;;;;;10.52;7.88;;;;;;;;;;5094796;28;20650;-74
2023/04/08 06:25:33;;;;;;;8.30;7.47;;;;;;;;;;5094106;28;20703;-68
2023/04/08 06:28:00;;;;;;;10.70;8.43;;;;;;;;;;5094896;28;20240;-68
2023/04/08 06:30:28;;;;;;;9.40;8.43;;;;;;;;;;5094455;28;20288;-69
2023/04/08 06:32:55;;;;;;;10.45;9.38;;;;;;;;;;5094987;28;20630;-69
2023/04/08 06:35:22;;;;;;;10.75;8.50;;;;;;;;;;5094543;28;20272;-69
2023/04/08 06:37:50;;;;;;;15.63;9.52;;;;;;;;;;5094238;28;20194;-82
2023/04/08 06:40:18;;;;;;;9.57;8.00;;;;;;;;;;5094170;28;20201;-70
2023/04/08 06:42:45;;;;;;;9.15;8.27;;;;;;;;;;5094806;28;20240;-69
2023/04/08 06:45:12;;;;;;;14.65;10.25;;;;;;;;;;5094129;28;20201;-68
2023/04/08 06:47:39;;;;;;;8.65;7.75;;;;;;;;;;5093957;28;20317;-68
2023/04/08 06:50:07;;;;;;;12.88;9.13;;;;;;;;;;5093984;28;20202;-68
2023/04/08 06:52:34;;;;;;;9.30;8.35;;;;;;;;;;5094606;28;20216;-69
2023/04/08 06:55:03;;;;;;;14.68;9.85;;;;;;;;;;5093914;28;20202;-68
2023/04/08 06:57:30;;;;;;;9.85;8.80;;;;;;;;;;5093221;28;20571;-68
2023/04/08 06:59:59;;;;;;;8.80;7.78;;;;;;;;;;5093820;28;20193;-69
2023/04/08 07:02:26;;;;;;;9.55;8.60;;;;;;;;;;5093344;28;20277;-68
2023/04/08 07:04:53;;;;;;;9.82;8.70;;;;;;;;;;5094198;28;20284;-68
2023/04/08 07:07:23;;;;;;;11.95;8.60;;;;;;;;;;5093746;28;20214;-68
2023/04/08 07:09:51;;;;;;;10.00;8.18;;;;;;;;;;5093850;28;20651;-68
2023/04/08 07:12:20;;;;;;;9.05;8.20;;;;;;;;;;5093762;28;20194;-68
2023/04/08 07:14:47;;;;;;;10.27;8.93;;;;;;;;;;5093862;28;20223;-68
2023/04/08 07:17:14;;;;;;;12.75;9.30;;;;;;;;;;5093716;28;20206;-68
2023/04/08 07:19:42;;;;;;;10.45;8.80;;;;;;;;;;5093674;28;20193;-68
2023/04/08 07:22:10;;;;;;;11.55;8.40;;;;;;;;;;5093308;28;20724;-68
2023/04/08 07:24:37;;;;;;;10.18;7.75;;;;;;;;;;5093646;28;20197;-68
2023/04/08 07:27:04;;;;;;;9.70;8.75;;;;;;;;;;5093341;28;20314;-68
2023/04/08 07:29:33;;;;;;;9.45;8.48;;;;;;;;;;5093937;28;20602;-68
2023/04/08 07:32:00;;;;;;;10.02;8.70;;;;;;;;;;5093420;28;20196;-68
2023/04/08 07:34:27;;;;;;;10.70;9.30;;;;;;;;;;5093975;28;20196;-68
2023/04/08 07:36:54;;;;;;;10.30;8.65;;;;;;;;;;5093038;28;20204;-68
2023/04/08 07:39:21;;;;;;;9.90;8.90;;;;;;;;;;5093967;28;20232;-68
2023/04/08 07:41:49;;;;;;;9.65;8.65;;;;;;;;;;5093516;28;20189;-68
2023/04/08 07:44:16;;;;;;;10.05;8.95;;;;;;;;;;5093406;28;20198;-68
2023/04/08 07:46:48;;;;;;;9.95;8.18;;;;;;;;;;5092998;28;20223;-68
2023/04/08 07:49:15;;;;;;;12.15;9.25;;;;;;;;;;5094094;28;20197;-68
2023/04/08 07:51:42;;;;;;;10.27;8.65;;;;;;;;;;5097420;28;20661;-68
2023/04/08 07:54:11;;;;;;;10.35;9.25;;;;;;;;;;5097494;28;20220;-68
2023/04/08 07:56:39;;;;;;;9.85;8.85;;;;;;;;;;5097211;28;20204;-68
2023/04/08 07:59:06;;;;;;;12.55;10.15;;;;;;;;;;5077651;28;20190;-68
2023/04/08 08:01:34;;;;;;;11.35;8.90;;;;;;;;;;5076708;28;20198;-68
2023/04/08 08:04:03;;;;;;;11.30;9.35;;;;;;;;;;5076509;28;20316;-68
2023/04/08 08:06:31;;;;;;;15.00;12.43;;;;;;;;;;5077142;28;20222;-68
2023/04/08 08:08:58;;;;;;;10.63;9.55;;;;;;;;;;5076964;28;20190;-68
2023/04/08 08:11:26;;;;;;;11.65;9.20;;;;;;;;;;5076808;28;20200;-69
2023/04/08 08:13:54;;;;;;;9.40;8.20;;;;;;;;;;5076935;28;20306;-68
2023/04/08 08:16:21;;;;;;;11.18;9.10;;;;;;;;;;5076448;28;20724;-68
2023/04/08 08:18:48;;;;;;;13.15;10.35;;;;;;;;;;5077134;28;20248;-68
2023/04/08 08:21:17;;;;;;;10.35;9.27;;;;;;;;;;5076575;28;20198;-68
2023/04/08 08:23:44;;;;;;;11.02;8.68;;;;;;;;;;5077008;28;20289;-69
2023/04/08 08:26:11;;;;;;;10.35;9.30;;;;;;;;;;5075972;28;20751;-68
2023/04/08 08:28:38;;;;;;;12.10;10.52;;;;;;;;;;5076230;28;20198;-69
2023/04/08 08:31:06;;;;;;;13.15;10.30;;;;;;;;;;5076406;28;20202;-69
2023/04/08 08:33:33;;;;;;;9.30;8.30;;;;;;;;;;5075979;28;20194;-68
2023/04/08 08:36:00;;;;;;;10.95;9.35;;;;;;;;;;5075880;28;20643;-69
2023/04/08 08:38:29;;;;;;;11.27;10.07;;;;;;;;;;5076132;28;20198;-69
2023/04/08 08:40:56;;;;;;;11.18;9.20;;;;;;;;;;5076504;28;20280;-69
2023/04/08 08:43:23;;;;;;;9.90;8.90;;;;;;;;;;5076302;28;20190;-70
2023/04/08 08:45:51;;;;;;;12.48;10.07;;;;;;;;;;5076112;28;20198;-69
2023/04/08 08:48:18;;;;;;;11.93;10.20;;;;;;;;;;5076019;28;20236;-69
2023/04/08 08:50:45;;;;;;;10.52;8.68;;;;;;;;;;5076085;28;20193;-71
2023/04/08 08:53:13;;;;;;;11.70;9.30;;;;;;;;;;5075985;28;20213;-69
2023/04/08 08:55:41;;;;;;;10.50;9.50;;;;;;;;;;5077926;28;20452;-69
2023/04/08 08:58:08;;;;;;;12.02;10.00;;;;;;;;;;5095794;28;20202;-68
2023/04/08 09:00:36;;;;;;;15.40;11.05;;;;;;;;;;5095151;28;20202;-68
2023/04/08 09:03:16;;;;;;;12.53;9.30;;;;;;;;;;5095490;28;20430;-69
2023/04/08 09:05:50;;;;;;;14.43;10.47;;;;;;;;;;5096079;28;20446;-68
2023/04/08 09:08:29;;;;;;;13.23;11.40;;;;;;;;;;5095870;28;20490;-68
2023/04/08 09:11:12;;;;;;;13.35;10.30;;;;;;;;;;5095757;28;20435;-69
2023/04/08 09:13:39;;;;;;;14.63;12.55;;;;;;;;;;5096309;28;20185;-68
2023/04/08 09:16:08;;;;;;;13.97;11.53;;;;;;;;;;5096255;28;20618;-68
2023/04/08 09:18:36;;;;;;;16.63;12.18;;;;;;;;;;5095922;28;20452;-68
2023/04/08 09:21:05;;;;;;;15.55;12.70;;;;;;;;;;5095842;28;20539;-68
2023/04/08 09:23:39;;;;;;;13.27;11.80;;;;;;;;;;5095711;28;20193;-68
2023/04/08 09:26:10;;;;;;;19.07;13.03;;;;;;;;;;5095228;28;20876;-69
2023/04/08 09:28:37;;;;;;;16.80;13.40;;;;;;;;;;5095697;28;20424;-68
2023/04/08 09:31:19;;;;;;;15.50;12.97;;;;;;;;;;5095564;28;20451;-68
2023/04/08 09:33:47;;;;;;;15.70;13.50;;;;;;;;;;5095423;28;20435;-69
2023/04/08 09:36:14;;;;;;;15.70;12.87;;;;;;;;;;5095126;28;20457;-68
2023/04/08 09:38:41;;;;;;;15.87;14.17;;;;;;;;;;5095542;28;20436;-68
2023/04/08 09:41:13;;;;;;;16.63;13.50;;;;;;;;;;5095046;28;20925;-68
2023/04/08 09:43:42;;;;;;;20.00;13.50;;;;;;;;;;5095030;28;20999;-68
2023/04/08 09:46:12;;;;;;;16.00;13.70;;;;;;;;;;5095677;28;20431;-69
2023/04/08 09:48:41;;;;;;;16.57;14.63;;;;;;;;;;5094914;28;20439;-68
2023/04/08 09:51:08;;;;;;;16.27;14.57;;;;;;;;;;5094901;28;20528;-68
2023/04/08 09:53:39;;;;;;;15.13;13.40;;;;;;;;;;5095294;28;20436;-68
2023/04/08 09:56:08;;;;;;;18.10;14.67;;;;;;;;;;5095341;28;20456;-68
2023/04/08 09:58:40;;;;;;;14.93;13.33;;;;;;;;;;5095011;28;20440;-67
2023/04/08 10:01:08;;;;;;;20.43;15.30;;;;;;;;;;5095252;28;20430;-67
2023/04/08 10:03:37;;;;;;;16.50;14.80;;;;;;;;;;5094600;28;20476;-67
2023/04/08 10:06:05;;;;;;;18.40;14.80;;;;;;;;;;5094618;28;20954;-69
2023/04/08 10:08:32;;;;;;;17.63;15.73;;;;;;;;;;5094700;28;20475;-67
2023/04/08 10:11:00;;;;;;;15.50;13.90;;;;;;;;;;5094807;28;20436;-68
2023/04/08 10:13:28;;;;;;;17.10;13.37;;;;;;;;;;5094073;28;20443;-68
2023/04/08 10:16:18;;;;;;;17.20;14.70;;;;;;;;;;5094477;28;20473;-68
2023/04/08 10:18:45;;;;;;;16.00;13.77;;;;;;;;;;5095039;28;20436;-68
2023/04/08 10:21:27;;;;;;;18.58;14.48;;;;;;;;;;5094314;28;20925;-68
2023/04/08 10:23:57;;;;;;;17.83;15.50;;;;;;;;;;5094135;28;20198;-68
2023/04/08 10:26:32;;;;;;;18.00;14.03;;;;;;;;;;5094170;28;20934;-68
2023/04/08 10:29:30;;;;;;;16.47;13.40;;;;;;;;;;5094398;28;20449;-68
2023/04/08 10:32:00;;;;;;;15.90;12.80;;;;;;;;;;5094818;28;20753;-68
2023/04/08 10:34:27;;;;;;;13.50;12.00;;;;;;;;;;5094117;28;20453;-68
2023/04/08 10:36:57;;;;;;;14.43;12.53;;;;;;;;;;5094475;28;20451;-68
2023/04/08 10:39:26;;;;;;;14.80;12.53;;;;;;;;;;5094284;28;20424;-68
2023/04/08 10:41:53;;;;;;;17.23;15.43;;;;;;;;;;5094011;28;20964;-68
2023/04/08 10:44:21;;;;;;;18.20;15.50;;;;;;;;;;5093915;28;20444;-68
2023/04/08 10:46:49;;;;;;;13.63;12.23;;;;;;;;;;5094236;28;20458;-68
2023/04/08 10:49:18;;;;;;;17.30;12.97;;;;;;;;;;5094038;28;20437;-68
2023/04/08 10:51:45;;;;;;;12.93;11.53;;;;;;;;;;5093974;28;20442;-68
2023/04/08 10:54:13;;;;;;;18.20;12.57;;;;;;;;;;5093956;28;20930;-68
2023/04/08 10:56:48;;;;;;;16.27;13.70;;;;;;;;;;5093815;28;20443;-68
2023/04/08 10:59:16;;;;;;;15.47;12.87;;;;;;;;;;5094105;28;20810;-68
2023/04/08 11:01:45;;;;;;;18.07;11.90;;;;;;;;;;5093552;28;20454;-68
2023/04/08 11:04:13;;;;;;;15.73;12.13;;;;;;;;;;5093576;28;20889;-68
2023/04/08 11:06:42;;;;;;;14.40;10.97;;;;;;;;;;5093733;28;20530;-68
2023/04/08 11:09:09;;;;;;;13.03;11.10;;;;;;;;;;5093778;28;20788;-68
2023/04/08 11:11:37;;;;;;;14.70;11.47;;;;;;;;;;5093839;28;20460;-68
2023/04/08 11:14:04;;;;;;;16.00;13.30;;;;;;;;;;5093349;28;20446;-68
2023/04/08 11:16:32;;;;;;;14.30;11.30;;;;;;;;;;5093728;28;20444;-68
2023/04/08 11:18:59;;;;;;;14.83;12.10;;;;;;;;;;5093903;28;20441;-68
2023/04/08 11:21:28;;;;;;;13.80;11.23;;;;;;;;;;5093596;28;20956;-68
2023/04/08 11:23:57;;;;;;;14.33;11.80;;;;;;;;;;5092647;28;20444;-68
2023/04/08 11:26:24;;;;;;;12.23;10.87;;;;;;;;;;5093449;28;20459;-68
2023/04/08 11:28:51;;;;;;;13.93;12.30;;;;;;;;;;5093060;28;20481;-68
2023/04/08 11:31:19;;;;;;;15.60;12.23;;;;;;;;;;5093723;28;20807;-68
2023/04/08 11:33:48;;;;;;;14.07;12.60;;;;;;;;;;5093249;28;20456;-68
2023/04/08 11:36:15;;;;;;;13.97;12.23;;;;;;;;;;5093054;28;20440;-68
2023/04/08 11:38:43;;;;;;;13.70;12.27;;;;;;;;;;5093013;28;20476;-67
2023/04/08 11:41:11;;;;;;;13.50;11.00;;;;;;;;;;5093436;28;20528;-68
2023/04/08 11:43:39;;;;;;;16.03;11.27;;;;;;;;;;5093207;28;20435;-68
2023/04/08 11:46:11;;;;;;;13.63;12.17;;;;;;;;;;5093176;28;20970;-68
2023/04/08 11:48:39;;;;;;;14.80;11.97;;;;;;;;;;5093593;28;20484;-68
2023/04/08 11:51:08;;;;;;;14.70;10.60;;;;;;;;;;5093622;28;20448;-68
2023/04/08 11:53:36;;;;;;;12.93;11.40;;;;;;;;;;5093291;28;20805;-68
2023/04/08 11:56:18;;;;;;;13.90;11.93;;;;;;;;;;5093104;28;20445;-69
2023/04/08 11:58:47;;;;;;;14.93;11.80;;;;;;;;;;5091648;28;20455;-69
2023/04/08 12:01:14;;;;;;;13.10;10.43;;;;;;;;;;5093704;28;20447;-68
2023/04/08 12:03:54;;;;;;;12.67;11.30;;;;;;;;;;5093150;28;21007;-68
2023/04/08 12:06:22;;;;;;;13.97;11.13;;;;;;;;;;5093163;28;20424;-69
2023/04/08 12:08:49;;;;;;;15.43;13.40;;;;;;;;;;5093156;28;20476;-68
2023/04/08 12:11:16;;;;;;;13.77;11.13;;;;;;;;;;5093059;28;20524;-68
2023/04/08 12:13:43;;;;;;;12.60;11.30;;;;;;;;;;5093496;28;20445;-68
2023/04/08 12:16:13;;;;;;;15.63;11.90;;;;;;;;;;5093101;28;20444;-68
2023/04/08 12:18:40;;;;;;;12.67;11.33;;;;;;;;;;5093068;28;20541;-68
2023/04/08 12:21:07;;;;;;;13.33;11.77;;;;;;;;;;5092951;28;20453;-69
2023/04/08 12:23:34;;;;;;;15.47;12.00;;;;;;;;;;5093366;28;20435;-69
2023/04/08 12:26:02;;;;;;;16.20;11.67;;;;;;;;;;5092552;28;21007;-69
2023/04/08 12:28:29;;;;;;;15.40;12.80;;;;;;;;;;5092606;28;20506;-68
2023/04/08 12:30:56;;;;;;;19.17;12.40;;;;;;;;;;5092573;28;20441;-68
2023/04/08 12:33:25;;;;;;;14.20;12.70;;;;;;;;;;5092770;28;20450;-68
2023/04/08 12:35:53;;;;;;;18.63;12.33;;;;;;;;;;5094278;28;20440;-68
2023/04/08 12:38:20;;;;;;;17.33;13.53;;;;;;;;;;5096685;28;20448;-68
2023/04/08 12:40:47;;;;;;;16.03;13.07;;;;;;;;;;5096434;28;20476;-68
2023/04/08 12:43:14;;;;;;;14.40;12.23;;;;;;;;;;5096870;28;20475;-68
2023/04/08 12:45:42;;;;;;;15.63;14.03;;;;;;;;;;5096401;28;20450;-68
2023/04/08 12:48:09;;;;;;;17.00;13.47;;;;;;;;;;5096363;28;20464;-68
2023/04/08 12:50:38;;;;;;;20.77;13.10;;;;;;;;;;5096286;28;20437;-68
2023/04/08 12:53:05;;;;;;;15.37;13.60;;;;;;;;;;5096352;28;20822;-68
2023/04/08 12:55:32;;;;;;;16.90;13.57;;;;;;;;;;5096190;28;20848;-68
2023/04/08 12:58:00;;;;;;;16.33;13.90;;;;;;;;;;5096192;28;20450;-69
2023/04/08 13:00:27;;;;;;;17.83;15.97;;;;;;;;;;5096423;28;20542;-68
2023/04/08 13:02:54;;;;;;;17.83;13.83;;;;;;;;;;5095900;28;20477;-69
2023/04/08 13:05:21;;;;;;;16.27;13.80;;;;;;;;;;5095997;28;20457;-68
2023/04/08 13:07:50;;;;;;;15.53;12.40;;;;;;;;;;5096586;28;20483;-69
2023/04/08 13:10:17;;;;;;;20.30;13.60;;;;;;;;;;5095574;28;20528;-68
2023/04/08 13:12:44;;;;;;;16.77;13.13;;;;;;;;;;5095871;28;20853;-69
2023/04/08 13:15:12;;;;;;;18.93;13.73;;;;;;;;;;5096029;28;20809;-69
2023/04/08 13:17:39;;;;;;;19.67;13.97;;;;;;;;;;5095578;28;20927;-67
2023/04/08 13:20:08;;;;;;;18.63;14.00;;;;;;;;;;5095753;28;20429;-69
2023/04/08 13:22:35;;;;;;;19.47;15.73;;;;;;;;;;5095763;28;20456;-68
2023/04/08 13:25:05;;;;;;;18.93;15.27;;;;;;;;;;5095755;28;20524;-68
2023/04/08 13:27:32;;;;;;;18.33;14.57;;;;;;;;;;5095829;28;20444;-68
2023/04/08 13:29:59;;;;;;;21.70;13.60;;;;;;;;;;5094922;28;20443;-69
2023/04/08 13:32:27;;;;;;;16.97;13.77;;;;;;;;;;5095453;28;20432;-68
2023/04/08 13:34:54;;;;;;;19.70;16.07;;;;;;;;;;5095639;28;20460;-68
2023/04/08 13:37:21;;;;;;;20.37;15.00;;;;;;;;;;5095372;28;20488;-68
2023/04/08 13:39:48;;;;;;;18.70;15.03;;;;;;;;;;5095392;28;20804;-68
2023/04/08 13:42:17;;;;;;;17.80;14.40;;;;;;;;;;5095251;28;20478;-68
2023/04/08 13:44:44;;;;;;;22.03;15.77;;;;;;;;;;5095346;28;20453;-68
2023/04/08 13:47:11;;;;;;;23.20;15.40;;;;;;;;;;5094724;28;20436;-68
2023/04/08 13:49:38;;;;;;;18.97;13.90;;;;;;;;;;5095083;28;20481;-68
2023/04/08 13:52:06;;;;;;;17.03;14.30;;;;;;;;;;5095104;28;20529;-68
2023/04/08 13:54:33;;;;;;;17.57;14.47;;;;;;;;;;5095196;28;20797;-69
2023/04/08 13:57:00;;;;;;;20.87;16.20;;;;;;;;;;5095297;28;20447;-69
2023/04/08 13:59:29;;;;;;;18.10;14.83;;;;;;;;;;5094960;28;20515;-68
2023/04/08 14:01:56;;;;;;;20.87;15.30;;;;;;;;;;5094584;28;20452;-69
2023/04/08 14:04:23;;;;;;;21.33;16.10;;;;;;;;;;5095228;28;20473;-69
2023/04/08 14:06:52;;;;;;;19.53;16.00;;;;;;;;;;5094558;28;20532;-68
2023/04/08 14:09:19;;;;;;;19.30;15.60;;;;;;;;;;5094383;28;20470;-68
2023/04/08 14:11:46;;;;;;;18.70;16.07;;;;;;;;;;5094754;28;20514;-68
2023/04/08 14:14:13;;;;;;;19.00;15.60;;;;;;;;;;5094795;28;20441;-68
2023/04/08 14:16:42;;;;;;;20.60;14.77;;;;;;;;;;5094671;28;20451;-69
2023/04/08 14:19:09;;;;;;;19.13;15.70;;;;;;;;;;5094303;28;20788;-69
2023/04/08 14:21:37;;;;;;;21.83;16.70;;;;;;;;;;5094432;28;20449;-68
2023/04/08 14:24:05;;;;;;;17.57;15.07;;;;;;;;;;5094268;28;20452;-68
2023/04/08 14:26:34;;;;;;;21.03;15.63;;;;;;;;;;5094482;28;20456;-69
2023/04/08 14:29:02;;;;;;;21.50;16.30;;;;;;;;;;5094329;28;20480;-68
2023/04/08 14:31:29;;;;;;;19.70;17.10;;;;;;;;;;5094909;28;20531;-68